Time;durP1;ratioP1;P1;durP2;ratioP2;P2;SDS_P1;SDS_P2;PMS_P1;PMS_P2;Temp;Humidity;BMP_temperature;BMP_pressure;BME280_temperature;BME280_humidity;BME280_pressure;Samples;Min_cycle;Max_cycle;Signal;HPM_P1;HPM_P2
2023/03/23 00:01:19;;;;;;;2.45;1.20;;;13.50;94.50;;;;;;5148030;27;20050;-72
2023/03/23 00:03:47;;;;;;;2.13;1.20;;;13.60;94.30;;;;;;5146390;27;20183;-72
2023/03/23 00:06:17;;;;;;;1.50;1.25;;;13.60;94.20;;;;;;5147125;27;20015;-72
2023/03/23 00:08:44;;;;;;;2.25;0.95;;;13.60;94.20;;;;;;5151781;27;20027;-72
2023/03/23 00:11:14;;;;;;;2.17;1.02;;;13.70;94.10;;;;;;5141990;27;20102;-72
2023/03/23 00:13:41;;;;;;;1.65;1.08;;;13.60;93.90;;;;;;5143230;27;20035;-73
2023/03/23 00:16:16;;;;;;;1.50;1.15;;;13.70;93.90;;;;;;5148959;27;20047;-73
2023/03/23 00:18:52;;;;;;;2.38;1.10;;;13.70;94.00;;;;;;5149645;27;20038;-74
2023/03/23 00:21:18;;;;;;;1.65;1.02;;;13.70;94.00;;;;;;5147067;27;20053;-73
2023/03/23 00:23:44;;;;;;;2.13;1.20;;;13.70;94.00;;;;;;5153420;27;20430;-71
2023/03/23 00:26:11;;;;;;;1.92;1.00;;;13.70;93.90;;;;;;5151518;27;20022;-74
2023/03/23 00:28:38;;;;;;;1.92;1.20;;;13.70;93.90;;;;;;5154250;27;20023;-74
2023/03/23 00:31:08;;;;;;;5.13;1.20;;;13.80;93.80;;;;;;5152533;27;20022;-73
2023/03/23 00:33:40;;;;;;;2.85;1.10;;;13.80;93.70;;;;;;5153878;27;20022;-74
2023/03/23 00:36:08;;;;;;;5.03;1.20;;;13.80;93.70;;;;;;5152604;27;20418;-72
2023/03/23 00:38:35;;;;;;;1.20;0.93;;;13.80;93.80;;;;;;5153607;27;20027;-74
2023/03/23 00:41:04;;;;;;;2.13;1.25;;;13.80;93.80;;;;;;5150798;27;20035;-75
2023/03/23 00:43:31;;;;;;;1.50;1.07;;;13.70;94.00;;;;;;5121112;27;20414;-73
2023/03/23 00:46:00;;;;;;;1.50;0.90;;;13.70;94.00;;;;;;5126885;27;20405;-73
2023/03/23 00:48:28;;;;;;;1.75;1.08;;;13.60;94.10;;;;;;5112218;28;20028;-74
2023/03/23 00:50:53;;;;;;;3.45;1.20;;;13.50;94.20;;;;;;5111145;28;20026;-72
2023/03/23 00:53:19;;;;;;;1.63;1.00;;;13.50;94.30;;;;;;5112535;28;20019;-74
2023/03/23 00:55:46;;;;;;;2.83;1.10;;;13.40;94.40;;;;;;5111359;28;20102;-73
2023/03/23 00:58:13;;;;;;;1.30;1.05;;;13.40;94.50;;;;;;5110054;28;20039;-72
2023/03/23 01:00:39;;;;;;;1.63;1.23;;;13.40;94.60;;;;;;5114104;27;20030;-74
2023/03/23 01:03:06;;;;;;;1.77;1.00;;;13.30;94.70;;;;;;5128904;27;20023;-72
2023/03/23 01:05:38;;;;;;;1.73;1.23;;;13.30;94.70;;;;;;5124304;27;20389;-73
2023/03/23 01:08:06;;;;;;;2.63;1.58;;;13.20;94.80;;;;;;5131296;27;20054;-73
2023/03/23 01:10:33;;;;;;;1.55;1.00;;;13.20;94.90;;;;;;5131550;27;20027;-73
2023/03/23 01:13:00;;;;;;;1.40;1.15;;;13.20;95.00;;;;;;5131124;28;20027;-72
2023/03/23 01:15:27;;;;;;;1.33;1.20;;;13.10;94.90;;;;;;5131801;28;20034;-73
2023/03/23 01:17:53;;;;;;;1.48;1.13;;;13.10;95.00;;;;;;5130984;28;20039;-74
2023/03/23 01:20:19;;;;;;;1.95;1.10;;;13.10;95.10;;;;;;5131409;28;20035;-73
2023/03/23 01:22:45;;;;;;;2.03;1.40;;;13.10;95.00;;;;;;5131939;28;20019;-75
2023/03/23 01:25:12;;;;;;;3.50;1.40;;;13.20;94.90;;;;;;5130629;28;20500;-74
2023/03/23 01:27:38;;;;;;;3.45;1.23;;;13.10;95.00;;;;;;5132008;28;20027;-73
2023/03/23 01:30:05;;;;;;;2.67;1.38;;;13.10;94.90;;;;;;5130591;28;20035;-72
2023/03/23 01:32:31;;;;;;;2.55;1.40;;;13.10;94.90;;;;;;5133928;27;20027;-73
2023/03/23 01:34:57;;;;;;;1.73;0.88;;;13.10;94.80;;;;;;5135033;27;20488;-73
2023/03/23 01:37:26;;;;;;;3.05;1.50;;;13.10;94.90;;;;;;5135388;27;20023;-73
2023/03/23 01:39:55;;;;;;;2.75;1.40;;;13.10;94.90;;;;;;5134901;27;20119;-69
2023/03/23 01:42:30;;;;;;;3.30;1.63;;;13.00;94.70;;;;;;5117729;27;20031;-73
2023/03/23 01:45:18;;;;;;;1.40;1.27;;;13.00;94.70;;;;;;5135214;27;20031;-73
2023/03/23 01:47:44;;;;;;;4.22;1.42;;;13.00;94.70;;;;;;5154711;27;20188;-72
2023/03/23 01:50:10;;;;;;;2.20;1.30;;;13.00;94.90;;;;;;5155585;27;20107;-74
2023/03/23 01:52:36;;;;;;;2.00;1.30;;;13.00;95.00;;;;;;5156485;27;20378;-74
2023/03/23 01:55:03;;;;;;;2.85;1.40;;;13.00;94.90;;;;;;5155268;27;20059;-73
2023/03/23 01:57:29;;;;;;;1.98;1.30;;;13.00;94.80;;;;;;5156678;27;20018;-73
2023/03/23 01:59:59;;;;;;;3.05;1.38;;;13.00;94.90;;;;;;5155503;27;20029;-73
2023/03/23 02:02:26;;;;;;;1.20;1.10;;;12.90;95.20;;;;;;5155933;27;20023;-73
2023/03/23 02:04:59;;;;;;;3.28;1.45;;;13.00;95.50;;;;;;5155397;27;20110;-69
2023/03/23 02:07:25;;;;;;;1.85;1.08;;;13.00;95.50;;;;;;5156605;27;20023;-73
2023/03/23 02:09:51;;;;;;;1.67;1.30;;;12.90;95.60;;;;;;5137302;27;20103;-70
2023/03/23 02:12:17;;;;;;;2.90;1.50;;;12.90;95.40;;;;;;5155646;27;20023;-75
2023/03/23 02:14:43;;;;;;;4.00;1.40;;;12.80;95.80;;;;;;5156143;27;20573;-74
2023/03/23 02:17:27;;;;;;;5.40;1.50;;;12.80;95.50;;;;;;5154856;27;20053;-73
2023/03/23 02:20:23;;;;;;;1.77;1.38;;;12.80;95.80;;;;;;5154576;27;20058;-74
2023/03/23 02:22:56;;;;;;;2.20;1.35;;;12.80;95.90;;;;;;5155350;27;20027;-70
2023/03/23 02:25:58;;;;;;;3.22;1.30;;;12.80;96.10;;;;;;5155229;27;20049;-72
2023/03/23 02:28:55;;;;;;;2.40;1.20;;;12.70;96.10;;;;;;5155910;27;20039;-73
2023/03/23 02:31:53;;;;;;;1.17;1.02;;;12.70;96.10;;;;;;5154950;27;20553;-74
2023/03/23 02:34:23;;;;;;;2.45;1.38;;;12.70;96.30;;;;;;5155678;27;20053;-74
2023/03/23 02:37:07;;;;;;;5.10;2.00;;;12.70;97.00;;;;;;5154792;27;20026;-69
2023/03/23 02:39:40;;;;;;;1.58;1.00;;;12.70;96.80;;;;;;5139381;27;20540;-73
2023/03/23 02:42:08;;;;;;;2.35;1.60;;;12.70;96.90;;;;;;5154191;27;20026;-72
2023/03/23 02:44:38;;;;;;;1.30;1.15;;;12.70;96.90;;;;;;5155071;27;20022;-72
2023/03/23 02:47:08;;;;;;;2.25;1.27;;;12.70;97.10;;;;;;5153507;27;20078;-73
2023/03/23 02:49:38;;;;;;;2.00;1.23;;;12.70;97.40;;;;;;5155422;27;20529;-72
2023/03/23 02:52:12;;;;;;;3.53;1.45;;;12.70;97.60;;;;;;5154135;27;20023;-73
2023/03/23 02:54:38;;;;;;;2.92;1.13;;;12.60;97.50;;;;;;5142282;27;20036;-73
2023/03/23 02:57:05;;;;;;;2.45;1.38;;;12.70;97.70;;;;;;5151075;27;20023;-72
2023/03/23 02:59:32;;;;;;;2.58;1.30;;;12.60;97.80;;;;;;5155011;27;20496;-73
2023/03/23 03:02:08;;;;;;;1.45;1.15;;;12.60;97.80;;;;;;5154142;27;20437;-74
2023/03/23 03:04:36;;;;;;;2.15;1.38;;;12.60;97.90;;;;;;5154979;27;20049;-73
2023/03/23 03:07:16;;;;;;;2.05;1.20;;;12.60;97.90;;;;;;5153618;27;20086;-73
2023/03/23 03:09:53;;;;;;;1.67;1.27;;;12.50;97.90;;;;;;5148995;27;20047;-73
2023/03/23 03:12:50;;;;;;;3.22;1.30;;;12.60;98.00;;;;;;5145246;27;20027;-73
2023/03/23 03:15:34;;;;;;;1.90;1.17;;;12.60;97.80;;;;;;5153908;27;20468;-73
2023/03/23 03:18:18;;;;;;;1.33;1.17;;;12.60;97.90;;;;;;5154298;27;20030;-73
2023/03/23 03:20:48;;;;;;;2.35;1.23;;;12.60;97.60;;;;;;5139226;27;20042;-74
2023/03/23 03:23:16;;;;;;;6.68;1.60;;;12.70;97.60;;;;;;5153177;27;20030;-73
2023/03/23 03:25:47;;;;;;;1.42;1.02;;;12.70;97.50;;;;;;5145005;27;20525;-74
2023/03/23 03:28:22;;;;;;;;;;;12.70;97.40;;;;;;5146658;27;20062;-74
2023/03/23 03:30:56;;;;;;;1.73;1.42;;;12.80;97.30;;;;;;5133347;27;19903;-71
2023/03/23 03:33:25;;;;;;;1.45;1.30;;;12.90;97.40;;;;;;5154495;27;20586;-73
2023/03/23 03:35:53;;;;;;;1.02;0.80;;;12.80;97.50;;;;;;5153529;27;20094;-70
2023/03/23 03:38:19;;;;;;;2.83;1.10;;;12.90;97.20;;;;;;5154365;27;20027;-73
2023/03/23 03:40:45;;;;;;;2.33;1.40;;;12.90;97.50;;;;;;5153877;27;20385;-73
2023/03/23 03:43:10;;;;;;;3.17;1.55;;;12.90;97.70;;;;;;5134765;27;20043;-74
2023/03/23 03:45:36;;;;;;;2.15;1.23;;;12.90;97.80;;;;;;5147604;27;20023;-74
2023/03/23 03:48:02;;;;;;;1.67;1.02;;;12.90;97.70;;;;;;5153397;27;20033;-72
2023/03/23 03:50:28;;;;;;;1.20;1.10;;;12.90;97.90;;;;;;5153716;27;20113;-73
2023/03/23 03:52:54;;;;;;;1.75;1.20;;;12.80;97.80;;;;;;5152533;27;20396;-73
2023/03/23 03:55:19;;;;;;;1.48;1.30;;;12.70;98.10;;;;;;5151836;27;20019;-73
2023/03/23 03:57:45;;;;;;;1.50;1.20;;;12.70;98.60;;;;;;5154113;27;20456;-74
2023/03/23 04:00:14;;;;;;;1.70;1.40;;;12.70;98.90;;;;;;5152535;27;20026;-71
2023/03/23 04:02:50;;;;;;;2.25;1.45;;;12.70;99.20;;;;;;5142198;27;20034;-72
2023/03/23 04:05:16;;;;;;;4.80;1.60;;;12.60;99.40;;;;;;5152239;27;20030;-75
2023/03/23 04:07:42;;;;;;;1.27;1.10;;;12.60;99.50;;;;;;5153925;27;20026;-73
2023/03/23 04:10:10;;;;;;;2.25;1.30;;;12.60;99.30;;;;;;5152736;27;20094;-72
2023/03/23 04:12:37;;;;;;;2.38;1.65;;;12.60;99.30;;;;;;5153855;27;20031;-72
2023/03/23 04:15:03;;;;;;;1.55;1.33;;;12.70;99.00;;;;;;5151867;27;20426;-71
2023/03/23 04:17:29;;;;;;;2.70;1.50;;;12.80;99.20;;;;;;5149472;27;20135;-72
2023/03/23 04:19:59;;;;;;;4.90;1.33;;;12.80;99.50;;;;;;5139385;27;20023;-72
2023/03/23 04:22:29;;;;;;;2.58;1.42;;;12.70;99.40;;;;;;5153653;27;20033;-72
2023/03/23 04:25:00;;;;;;;3.30;1.20;;;12.70;99.90;;;;;;5144542;27;20491;-75
2023/03/23 04:27:27;;;;;;;;;;;12.70;99.30;;;;;;5120697;27;20054;-74
2023/03/23 04:29:58;;;;;;;2.05;1.50;;;12.70;99.30;;;;;;5151978;27;19911;-75
2023/03/23 04:32:28;;;;;;;3.22;1.70;;;12.70;99.70;;;;;;5152713;27;20033;-73
2023/03/23 04:34:55;;;;;;;2.83;1.85;;;12.60;99.90;;;;;;5129754;27;20393;-73
2023/03/23 04:37:25;;;;;;;2.13;1.92;;;12.60;99.90;;;;;;5138647;27;20036;-74
2023/03/23 04:39:59;;;;;;;2.92;1.63;;;12.50;99.90;;;;;;5152401;27;20058;-70
2023/03/23 04:42:29;;;;;;;1.45;1.13;;;12.50;99.90;;;;;;5139605;27;20054;-73
2023/03/23 04:44:56;;;;;;;2.13;1.30;;;12.50;99.90;;;;;;5147726;27;20056;-73
2023/03/23 04:47:22;;;;;;;2.40;1.40;;;12.50;99.90;;;;;;5152765;27;20048;-74
2023/03/23 04:49:47;;;;;;;1.77;1.15;;;12.60;99.90;;;;;;5152620;27;20097;-71
2023/03/23 04:52:13;;;;;;;3.05;1.20;;;12.70;99.30;;;;;;5141789;27;20453;-74
2023/03/23 04:54:39;;;;;;;2.25;1.27;;;13.00;98.80;;;;;;5146237;27;20031;-73
2023/03/23 04:57:05;;;;;;;2.92;1.10;;;13.10;98.40;;;;;;5151486;27;20472;-74
2023/03/23 04:59:31;;;;;;;2.05;1.23;;;13.30;98.10;;;;;;5153164;27;20026;-73
2023/03/23 05:01:57;;;;;;;3.13;1.42;;;13.40;97.70;;;;;;5151996;27;20023;-73
2023/03/23 05:04:24;;;;;;;1.25;1.10;;;13.70;97.20;;;;;;5152905;27;20023;-73
2023/03/23 05:06:53;;;;;;;3.88;1.27;;;13.90;97.00;;;;;;5151089;27;20027;-69
2023/03/23 05:09:19;;;;;;;3.33;1.10;;;13.90;96.90;;;;;;5152592;27;20362;-75
2023/03/23 05:11:45;;;;;;;2.25;1.10;;;13.90;96.80;;;;;;5131987;27;20021;-73
2023/03/23 05:14:11;;;;;;;2.88;1.33;;;13.90;96.80;;;;;;5141667;27;20045;-72
2023/03/23 05:16:37;;;;;;;1.48;1.05;;;13.90;96.70;;;;;;5152245;27;20031;-74
2023/03/23 05:19:04;;;;;;;2.90;1.30;;;14.00;96.60;;;;;;5151884;27;20033;-73
2023/03/23 05:21:30;;;;;;;1.92;1.17;;;14.00;96.60;;;;;;5152257;27;20023;-74
2023/03/23 05:23:56;;;;;;;2.65;1.33;;;14.00;96.60;;;;;;5151909;27;20022;-72
2023/03/23 05:26:23;;;;;;;2.78;1.08;;;14.00;96.50;;;;;;5142396;27;20026;-81
2023/03/23 05:28:52;;;;;;;1.98;1.13;;;14.00;96.40;;;;;;5147592;27;20065;-69
2023/03/23 05:31:18;;;;;;;2.63;1.23;;;14.00;96.40;;;;;;5145505;27;20097;-73
2023/03/23 05:33:44;;;;;;;1.42;1.13;;;14.00;96.30;;;;;;5138968;27;20022;-72
2023/03/23 05:36:13;;;;;;;2.00;1.10;;;14.10;96.10;;;;;;5151328;27;20034;-73
2023/03/23 05:38:47;;;;;;;2.47;1.60;;;14.10;96.20;;;;;;5152506;27;20031;-71
2023/03/23 05:41:14;;;;;;;2.42;1.30;;;14.10;96.10;;;;;;5147966;27;20027;-72
2023/03/23 05:43:39;;;;;;;2.78;1.25;;;14.20;96.10;;;;;;5136576;27;20115;-73
2023/03/23 05:46:06;;;;;;;4.32;1.40;;;14.10;96.10;;;;;;5141432;27;20070;-73
2023/03/23 05:48:32;;;;;;;1.48;1.20;;;14.10;96.00;;;;;;5143737;27;20051;-73
2023/03/23 05:50:58;;;;;;;1.63;1.30;;;14.20;95.80;;;;;;5154831;27;20030;-73
2023/03/23 05:53:24;;;;;;;2.60;1.38;;;14.20;95.80;;;;;;5154349;27;20152;-73
2023/03/23 05:55:50;;;;;;;2.05;1.40;;;14.20;95.80;;;;;;5164728;27;20031;-69
2023/03/23 05:58:15;;;;;;;1.73;1.27;;;14.30;95.80;;;;;;5159115;27;20023;-73
2023/03/23 06:00:41;;;;;;;2.97;1.70;;;14.30;95.80;;;;;;5148020;27;20035;-73
2023/03/23 06:03:07;;;;;;;1.58;1.38;;;14.30;95.70;;;;;;5148226;27;20652;-72
2023/03/23 06:05:32;;;;;;;2.22;1.42;;;14.30;95.70;;;;;;5136386;27;20033;-73
2023/03/23 06:07:58;;;;;;;1.33;1.08;;;14.40;95.50;;;;;;5151593;27;20105;-73
2023/03/23 06:10:25;;;;;;;2.00;1.30;;;14.40;95.50;;;;;;5151372;27;20027;-73
2023/03/23 06:12:51;;;;;;;1.92;1.33;;;14.50;95.40;;;;;;5151734;27;20079;-71
2023/03/23 06:15:17;;;;;;;2.83;1.55;;;14.50;95.30;;;;;;5151847;27;20050;-74
2023/03/23 06:17:43;;;;;;;2.70;1.52;;;14.60;95.30;;;;;;5148897;27;20065;-74
2023/03/23 06:20:09;;;;;;;2.13;1.77;;;14.60;95.30;;;;;;5144121;27;20031;-72
2023/03/23 06:22:37;;;;;;;2.50;1.52;;;14.50;95.20;;;;;;5155321;27;20528;-72
2023/03/23 06:25:07;;;;;;;4.32;1.80;;;14.50;95.20;;;;;;5145774;27;20015;-72
2023/03/23 06:27:33;;;;;;;2.85;1.45;;;14.50;95.20;;;;;;5155926;27;20045;-72
2023/03/23 06:29:58;;;;;;;5.05;1.35;;;14.50;95.10;;;;;;5154665;27;20481;-75
2023/03/23 06:32:28;;;;;;;3.10;1.60;;;14.50;95.20;;;;;;5142888;27;20058;-72
2023/03/23 06:34:54;;;;;;;2.50;1.60;;;14.50;95.20;;;;;;5144979;27;20035;-72
2023/03/23 06:37:20;;;;;;;1.77;1.45;;;14.50;95.20;;;;;;5154864;27;20383;-73
2023/03/23 06:39:46;;;;;;;3.60;2.05;;;14.50;95.30;;;;;;5155870;27;20038;-73
2023/03/23 06:42:12;;;;;;;2.75;1.58;;;14.40;95.40;;;;;;5142203;27;20027;-76
2023/03/23 06:44:38;;;;;;;2.83;1.88;;;14.40;95.40;;;;;;5148732;27;20027;-75
2023/03/23 06:47:04;;;;;;;2.95;1.50;;;14.40;95.60;;;;;;5153286;27;20392;-75
2023/03/23 06:49:30;;;;;;;2.25;1.50;;;14.40;95.60;;;;;;5155633;27;20026;-74
2023/03/23 06:52:01;;;;;;;3.35;1.40;;;14.40;95.70;;;;;;5147761;27;20035;-73
2023/03/23 06:54:27;;;;;;;3.03;1.67;;;14.50;95.80;;;;;;5137799;27;20480;-71
2023/03/23 06:56:53;;;;;;;2.22;1.60;;;14.50;95.70;;;;;;5146492;27;20027;-74
2023/03/23 06:59:19;;;;;;;2.25;1.27;;;14.70;95.70;;;;;;5155167;27;20031;-75
2023/03/23 07:01:46;;;;;;;1.92;1.33;;;14.80;95.40;;;;;;5154630;27;20034;-79
2023/03/23 07:04:12;;;;;;;2.50;1.50;;;15.00;95.30;;;;;;5154594;27;20031;-79
2023/03/23 07:06:37;;;;;;;2.28;1.58;;;15.10;95.00;;;;;;5154745;27;20431;-76
2023/03/23 07:09:03;;;;;;;2.00;1.40;;;15.30;94.80;;;;;;5148489;27;20110;-76
2023/03/23 07:11:29;;;;;;;4.72;1.67;;;15.40;94.70;;;;;;5154593;27;20011;-75
2023/03/23 07:13:56;;;;;;;2.08;1.30;;;15.40;94.60;;;;;;5154366;27;20063;-75
2023/03/23 07:16:21;;;;;;;2.42;1.10;;;15.40;94.50;;;;;;5154725;27;20114;-76
2023/03/23 07:18:47;;;;;;;4.35;1.40;;;15.40;94.40;;;;;;5154646;27;20110;-77
2023/03/23 07:21:12;;;;;;;2.72;1.20;;;15.40;94.50;;;;;;5153610;27;20101;-77
2023/03/23 07:23:38;;;;;;;1.85;1.40;;;15.40;94.60;;;;;;5145596;27;20023;-77
2023/03/23 07:26:04;;;;;;;3.05;1.33;;;15.30;94.50;;;;;;5138016;27;20076;-76
2023/03/23 07:28:31;;;;;;;2.45;1.52;;;15.30;94.70;;;;;;5133850;27;20106;-74
2023/03/23 07:30:56;;;;;;;1.63;1.00;;;15.20;94.80;;;;;;5148699;27;20022;-76
2023/03/23 07:33:22;;;;;;;3.28;1.73;;;15.20;94.90;;;;;;5137501;27;20019;-77
2023/03/23 07:35:48;;;;;;;1.98;1.52;;;15.20;95.00;;;;;;5154249;27;20030;-72
2023/03/23 07:38:14;;;;;;;6.22;1.50;;;15.20;95.00;;;;;;5139142;27;20076;-75
2023/03/23 07:40:40;;;;;;;2.78;1.98;;;15.20;95.00;;;;;;5147790;27;20384;-78
2023/03/23 07:43:06;;;;;;;3.30;1.35;;;15.20;95.00;;;;;;5146207;27;20027;-77
2023/03/23 07:45:31;;;;;;;2.70;1.60;;;15.20;95.00;;;;;;5153889;27;20460;-76
2023/03/23 07:47:58;;;;;;;2.33;1.73;;;15.30;95.00;;;;;;5153351;27;20026;-76
2023/03/23 07:50:26;;;;;;;3.50;1.70;;;15.40;94.80;;;;;;5154266;27;20023;-76
2023/03/23 07:52:57;;;;;;;3.95;1.40;;;15.50;94.70;;;;;;5129887;27;20034;-78
2023/03/23 07:55:24;;;;;;;2.75;1.35;;;15.70;94.70;;;;;;5152900;27;20026;-78
2023/03/23 07:57:51;;;;;;;3.50;1.70;;;15.80;94.50;;;;;;5148392;27;20109;-71
2023/03/23 08:00:23;;;;;;;2.45;1.40;;;16.00;94.30;;;;;;5145020;27;20081;-77
2023/03/23 08:02:57;;;;;;;2.55;1.75;;;16.30;94.10;;;;;;5148524;27;20061;-71
2023/03/23 08:05:25;;;;;;;4.00;1.67;;;16.50;93.90;;;;;;5136104;27;20023;-77
2023/03/23 08:07:53;;;;;;;2.20;1.48;;;16.60;93.60;;;;;;5153124;27;20035;-71
2023/03/23 08:10:21;;;;;;;9.95;1.70;;;16.70;93.50;;;;;;5148711;27;20392;-76
2023/03/23 08:12:51;;;;;;;2.28;1.50;;;16.70;93.70;;;;;;5136833;27;20031;-71
2023/03/23 08:15:18;;;;;;;2.38;1.58;;;16.60;93.70;;;;;;5143266;27;20176;-77
2023/03/23 08:17:44;;;;;;;3.15;1.40;;;16.60;93.80;;;;;;5131817;27;20515;-76
2023/03/23 08:20:12;;;;;;;3.17;1.40;;;16.50;94.10;;;;;;5152200;27;20030;-77
2023/03/23 08:22:40;;;;;;;2.63;1.40;;;16.40;94.30;;;;;;5151073;27;20030;-78
2023/03/23 08:25:08;;;;;;;1.67;1.35;;;16.50;94.40;;;;;;5131442;27;20049;-76
2023/03/23 08:27:34;;;;;;;4.18;1.40;;;16.50;94.60;;;;;;5137888;27;20027;-73
2023/03/23 08:29:59;;;;;;;2.55;1.60;;;16.70;94.50;;;;;;5152574;27;20031;-75
2023/03/23 08:32:25;;;;;;;4.78;1.52;;;16.70;94.40;;;;;;5153477;27;20027;-76
2023/03/23 08:34:52;;;;;;;2.78;1.30;;;16.70;94.60;;;;;;5135827;27;20034;-71
2023/03/23 08:37:17;;;;;;;6.28;1.92;;;16.80;94.60;;;;;;5152243;27;20035;-76
2023/03/23 08:39:43;;;;;;;4.05;1.80;;;16.80;94.70;;;;;;5153595;27;20042;-77
2023/03/23 08:42:09;;;;;;;4.95;1.60;;;16.80;94.80;;;;;;5150316;27;20102;-77
2023/03/23 08:44:36;;;;;;;3.50;1.48;;;16.80;94.90;;;;;;5152975;27;20022;-75
2023/03/23 08:47:03;;;;;;;20.10;2.00;;;16.70;95.10;;;;;;5136010;27;20046;-74
2023/03/23 08:49:32;;;;;;;3.03;1.92;;;16.60;95.40;;;;;;5126058;27;20034;-75
2023/03/23 08:51:58;;;;;;;50.45;4.20;;;16.60;95.60;;;;;;5131062;27;20068;-75
2023/03/23 08:54:24;;;;;;;5.43;1.50;;;16.50;95.90;;;;;;5132573;27;20035;-74
2023/03/23 08:56:50;;;;;;;3.13;1.60;;;16.50;95.90;;;;;;5131470;27;20030;-70
2023/03/23 08:59:16;;;;;;;2.05;1.30;;;16.40;96.10;;;;;;5132052;27;20476;-75
2023/03/23 09:01:42;;;;;;;3.53;1.73;;;16.40;96.30;;;;;;5132059;27;20031;-76
2023/03/23 09:04:08;;;;;;;1.65;1.35;;;16.30;96.40;;;;;;5131503;27;20575;-76
2023/03/23 09:06:38;;;;;;;3.38;1.92;;;16.30;96.60;;;;;;5131889;27;20477;-76
2023/03/23 09:09:06;;;;;;;1.73;1.50;;;16.40;96.40;;;;;;5131183;27;20497;-73
2023/03/23 09:11:33;;;;;;;3.22;1.70;;;16.40;96.30;;;;;;5131906;27;20081;-76
2023/03/23 09:13:59;;;;;;;3.22;1.50;;;16.40;96.60;;;;;;5131773;27;20369;-75
2023/03/23 09:16:25;;;;;;;4.07;1.48;;;16.60;96.40;;;;;;5131863;28;20027;-75
2023/03/23 09:18:51;;;;;;;2.95;1.27;;;16.70;96.20;;;;;;5131891;28;20035;-71
2023/03/23 09:21:17;;;;;;;3.03;1.45;;;16.90;96.50;;;;;;5131638;28;20110;-75
2023/03/23 09:23:44;;;;;;;3.97;1.73;;;17.00;95.90;;;;;;5132169;28;20110;-76
2023/03/23 09:26:10;;;;;;;2.00;1.45;;;17.10;95.80;;;;;;5131144;28;20019;-77
2023/03/23 09:28:35;;;;;;;2.58;1.58;;;17.10;95.60;;;;;;5132589;28;20038;-76
2023/03/23 09:31:01;;;;;;;2.22;1.33;;;17.20;95.40;;;;;;5112597;28;20027;-77
2023/03/23 09:33:28;;;;;;;2.40;1.60;;;17.20;95.40;;;;;;5132392;28;20069;-77
2023/03/23 09:35:54;;;;;;;3.22;1.55;;;17.30;95.30;;;;;;5131064;28;20027;-76
2023/03/23 09:38:21;;;;;;;3.03;1.50;;;17.30;95.10;;;;;;5132742;28;20028;-76
2023/03/23 09:41:22;;;;;;;2.65;1.38;;;17.20;95.20;;;;;;5132190;28;20019;-75
2023/03/23 09:44:00;;;;;;;4.10;1.77;;;17.20;95.10;;;;;;5139696;28;20095;-70
2023/03/23 09:46:48;;;;;;;2.55;1.50;;;17.20;95.50;;;;;;5153431;27;20051;-75
2023/03/23 09:49:21;;;;;;;3.90;1.63;;;17.10;95.40;;;;;;5151106;27;20031;-76
2023/03/23 09:51:58;;;;;;;1.63;1.10;;;17.10;95.30;;;;;;5148917;27;20042;-72
2023/03/23 09:54:40;;;;;;;1.25;1.05;;;17.10;95.30;;;;;;5157508;27;20031;-77
2023/03/23 09:57:18;;;;;;;3.35;1.40;;;17.00;95.40;;;;;;5169453;27;20027;-78
2023/03/23 09:59:56;;;;;;;23.25;1.60;;;17.10;95.20;;;;;;5150754;27;20034;-76
2023/03/23 10:02:46;;;;;;;2.73;1.50;;;17.10;95.20;;;;;;5156698;27;20066;-75
2023/03/23 10:05:31;;;;;;;2.42;1.20;;;17.20;95.20;;;;;;5148784;27;20397;-77
2023/03/23 10:07:59;;;;;;;3.58;1.20;;;17.30;95.30;;;;;;5143299;27;20052;-77
2023/03/23 10:10:50;;;;;;;2.15;1.30;;;17.40;95.10;;;;;;5138029;27;20422;-75
2023/03/23 10:13:46;;;;;;;6.13;1.55;;;17.50;95.10;;;;;;5167081;27;20035;-76
2023/03/23 10:16:17;;;;;;;2.72;1.35;;;17.80;94.70;;;;;;5161637;27;20057;-76
2023/03/23 10:18:55;;;;;;;1.95;1.10;;;17.90;94.60;;;;;;5161349;27;20461;-77
2023/03/23 10:21:22;;;;;;;4.93;1.08;;;18.00;94.80;;;;;;5170753;27;20725;-77
2023/03/23 10:24:03;;;;;;;5.30;1.48;;;18.20;94.10;;;;;;5164083;27;20473;-71
2023/03/23 10:26:43;;;;;;;4.40;2.13;;;18.30;93.80;;;;;;5147318;27;20019;-75
2023/03/23 10:29:16;;;;;;;2.78;1.52;;;18.20;93.80;;;;;;5160940;27;20457;-75
2023/03/23 10:32:11;;;;;;;2.80;1.30;;;18.00;93.90;;;;;;5158456;27;20031;-76
2023/03/23 10:34:52;;;;;;;2.33;1.00;;;18.00;94.10;;;;;;5151381;27;20121;-75
2023/03/23 10:37:29;;;;;;;3.80;1.30;;;18.00;94.20;;;;;;5135958;27;20097;-76
2023/03/23 10:40:00;;;;;;;1.90;1.50;;;18.00;94.40;;;;;;5155041;27;20030;-75
2023/03/23 10:42:32;;;;;;;3.38;2.00;;;18.00;94.20;;;;;;5141643;27;20050;-76
2023/03/23 10:45:09;;;;;;;2.08;1.48;;;17.90;94.30;;;;;;5151378;27;20054;-77
2023/03/23 10:47:38;;;;;;;3.13;1.48;;;17.70;94.60;;;;;;5148245;27;20160;-76
2023/03/23 10:50:06;;;;;;;2.03;1.50;;;17.70;94.50;;;;;;5138684;27;20015;-74
2023/03/23 10:52:37;;;;;;;1.25;1.15;;;17.60;94.80;;;;;;5141932;27;20027;-77
2023/03/23 10:55:06;;;;;;;2.03;1.05;;;17.60;95.30;;;;;;5144543;27;20066;-76
2023/03/23 10:57:33;;;;;;;3.00;1.40;;;17.60;95.40;;;;;;5134794;27;20043;-77
2023/03/23 11:00:08;;;;;;;6.97;2.13;;;17.80;95.40;;;;;;5133603;27;20020;-77
2023/03/23 11:02:42;;;;;;;4.18;1.55;;;17.90;94.80;;;;;;5134381;27;20366;-76
2023/03/23 11:05:19;;;;;;;4.90;1.40;;;18.00;94.60;;;;;;5132020;27;20023;-76
2023/03/23 11:07:59;;;;;;;2.08;1.20;;;18.20;94.40;;;;;;5137895;27;20035;-76
2023/03/23 11:10:45;;;;;;;7.57;2.10;;;18.40;94.20;;;;;;5134345;27;20096;-76
2023/03/23 11:13:16;;;;;;;1.95;1.42;;;18.60;94.00;;;;;;5115419;27;20825;-76
2023/03/23 11:15:46;;;;;;;3.95;1.33;;;18.50;93.80;;;;;;5133833;27;20019;-76
2023/03/23 11:18:23;;;;;;;3.40;1.48;;;18.40;93.70;;;;;;5133617;27;20130;-77
2023/03/23 11:20:54;;;;;;;2.08;1.60;;;18.30;94.00;;;;;;5128238;27;20115;-71
2023/03/23 11:23:23;;;;;;;2.25;1.40;;;18.20;94.10;;;;;;5134935;27;20023;-76
2023/03/23 11:26:23;;;;;;;2.05;1.42;;;18.20;94.40;;;;;;5133253;27;20465;-70
2023/03/23 11:29:10;;;;;;;1.40;1.30;;;18.20;94.40;;;;;;5133702;27;20095;-71
2023/03/23 11:31:39;;;;;;;4.03;1.65;;;18.10;94.70;;;;;;5138283;27;20027;-76
2023/03/23 11:34:10;;;;;;;3.17;1.50;;;18.00;94.90;;;;;;5141148;27;20391;-76
2023/03/23 11:36:40;;;;;;;5.68;1.77;;;18.00;95.20;;;;;;5140438;27;20080;-78
2023/03/23 11:39:25;;;;;;;2.22;1.23;;;18.00;95.30;;;;;;5139749;27;20095;-76
2023/03/23 11:41:51;;;;;;;4.20;1.85;;;18.20;95.20;;;;;;5118738;27;20465;-71
2023/03/23 11:44:16;;;;;;;2.10;1.45;;;18.50;94.70;;;;;;5134479;27;20028;-76
2023/03/23 11:46:55;;;;;;;8.63;1.75;;;18.60;94.30;;;;;;5143142;27;20492;-76
2023/03/23 11:49:46;;;;;;;2.95;1.67;;;18.70;94.10;;;;;;5154563;27;20061;-76
2023/03/23 11:52:22;;;;;;;2.70;1.63;;;18.80;93.60;;;;;;5141559;27;20362;-76
2023/03/23 11:55:02;;;;;;;2.10;1.30;;;18.80;93.80;;;;;;5135629;27;20083;-70
2023/03/23 11:57:30;;;;;;;2.30;1.90;;;18.70;93.60;;;;;;5146423;27;20026;-75
2023/03/23 12:00:00;;;;;;;4.93;1.83;;;18.70;93.70;;;;;;5153187;27;20027;-76
2023/03/23 12:02:50;;;;;;;3.38;1.52;;;18.80;93.90;;;;;;5154462;27;20027;-76
2023/03/23 12:05:45;;;;;;;1.80;1.37;;;18.80;93.70;;;;;;5153236;27;20030;-75
2023/03/23 12:08:43;;;;;;;4.00;1.40;;;18.80;93.30;;;;;;5153357;27;20253;-75
2023/03/23 12:11:27;;;;;;;1.92;1.10;;;18.90;93.10;;;;;;5125155;27;20095;-76
2023/03/23 12:14:03;;;;;;;3.03;1.60;;;19.10;93.00;;;;;;5153467;27;20469;-75
2023/03/23 12:16:39;;;;;;;1.52;1.42;;;19.20;92.70;;;;;;5142453;27;20029;-76
2023/03/23 12:19:19;;;;;;;1.67;1.40;;;19.30;91.50;;;;;;5150121;27;20080;-75
2023/03/23 12:21:53;;;;;;;2.60;1.60;;;19.30;91.30;;;;;;5146563;27;20083;-76
2023/03/23 12:24:31;;;;;;;1.83;1.45;;;19.20;91.00;;;;;;5145281;27;20023;-75
2023/03/23 12:27:03;;;;;;;4.72;1.50;;;19.10;91.00;;;;;;5152255;27;20465;-75
2023/03/23 12:29:58;;;;;;;2.95;1.60;;;19.10;90.80;;;;;;5153816;27;20446;-76
2023/03/23 12:32:51;;;;;;;5.60;1.75;;;19.10;91.10;;;;;;5153520;27;20035;-75
2023/03/23 12:35:35;;;;;;;2.45;1.40;;;19.20;90.90;;;;;;5153258;27;20066;-76
2023/03/23 12:38:20;;;;;;;6.18;1.45;;;19.20;90.70;;;;;;5153399;27;20117;-76
2023/03/23 12:41:08;;;;;;;3.00;1.42;;;19.10;90.70;;;;;;5152855;27;20617;-77
2023/03/23 12:43:52;;;;;;;3.50;1.40;;;19.10;90.80;;;;;;5137328;27;20027;-75
2023/03/23 12:46:43;;;;;;;4.25;1.40;;;19.30;90.60;;;;;;5152383;27;20064;-75
2023/03/23 12:49:44;;;;;;;2.35;1.60;;;19.50;90.30;;;;;;5153887;27;20019;-75
2023/03/23 12:52:15;;;;;;;2.55;1.60;;;19.80;90.10;;;;;;5148129;27;20592;-75
2023/03/23 12:54:51;;;;;;;1.63;1.33;;;19.90;89.80;;;;;;5154014;27;20050;-75
2023/03/23 12:57:38;;;;;;;2.83;1.33;;;20.00;89.80;;;;;;5153217;27;20026;-75
2023/03/23 13:00:15;;;;;;;2.00;1.40;;;20.00;89.20;;;;;;5157403;27;20544;-75
2023/03/23 13:02:44;;;;;;;1.70;1.60;;;19.80;89.30;;;;;;5153024;27;20114;-74
2023/03/23 13:05:14;;;;;;;2.17;1.55;;;19.60;89.80;;;;;;5151703;27;20551;-74
2023/03/23 13:07:47;;;;;;;1.73;1.48;;;19.40;90.20;;;;;;5152963;27;20400;-75